CYNM

Matagami Airport

Matagami, Quebec, Canada
METAR CYNM 231000Z AUTO 17006KT 9SM FEW100 M18/M19 A3040 RMK ICG SLP323
Observed Flight Rules
Feb-23 @ 10:00 UTC (29 minutes ago) Visual Flight Rules
Wind Visibility Clouds
170° at 6 knots 9 miles
  • Few at 10,000' AGL
Temperatures Readings
Current -18°C / 0°F
Dewpoint -19°C / -2°F
Humidity 92%
Altimeter 30.4" Hg
Pressure 1032.3 hPa
Elevation 281
METAR CYNM 231000Z AUTO 17006KT 9SM FEW100 M18/M19 A3040 RMK ICG SLP323
Observed Flight Rules
Feb-23 @ 10:00 UTC
(29 minutes ago)
VFR
Wind Visibility
170° at 6 knots 9 miles
Clouds
  • Few at 10,000' AGL
Temperature Dewpoint
-18°C / 0°F -19°C / -2°F
Humidity Altimeter Pressure
92% 30.4" Hg 1032.3 hPa